Wetterstation Vordersexau
Wetterdaten: Woche 09.01.12 - 15.01.12 (KW2)
Datum Zeit Temp. A. Feuchte A. Luftdruck Regen Wind Richtung Taupunkt Windchill Windben
09.01.2012 00:00 3,4 C 84 % 1026,1 hPa 0,0 l/m 0,0 km/h O-NO 1,0 C 3,4 C 0,0 km/h
09.01.2012 01:00 3,0 C 84 % 1026,4 hPa 0,0 l/m 0,0 km/h SO 0,6 C 3,0 C 0,0 km/h
09.01.2012 02:00 2,5 C 84 % 1026,8 hPa 0,0 l/m 0,0 km/h SO 0,1 C 2,5 C 0,0 km/h
09.01.2012 03:00 2,3 C 84 % 1027,5 hPa 0,0 l/m 0,0 km/h SO -0,1 C 2,3 C 0,0 km/h
09.01.2012 04:00 2,4 C 84 % 1027,5 hPa 0,0 l/m 0,0 km/h SO -0,0 C 2,4 C 0,0 km/h
09.01.2012 05:00 2,4 C 84 % 1027,5 hPa 0,0 l/m 0,0 km/h SO -0,0 C 2,4 C 0,0 km/h
09.01.2012 06:00 2,5 C 83 % 1027,6 hPa 0,0 l/m 0,0 km/h NO -0,1 C 2,5 C 0,0 km/h
09.01.2012 07:00 2,7 C 83 % 1028,2 hPa 0,0 l/m 0,0 km/h NO 0,1 C 2,7 C 0,0 km/h
09.01.2012 08:00 2,9 C 82 % 1028,2 hPa 0,0 l/m 0,0 km/h SO 0,1 C 2,9 C 0,0 km/h
09.01.2012 09:00 3,4 C 82 % 1028,4 hPa 0,0 l/m 0,0 km/h SO 0,6 C 3,4 C 0,0 km/h
09.01.2012 10:00 4,4 C 80 % 1029,2 hPa 0,0 l/m 0,0 km/h NO 1,3 C 4,4 C 0,0 km/h
09.01.2012 11:00 6,1 C 79 % 1028,9 hPa 0,0 l/m 0,0 km/h O-NO 2,7 C 6,1 C 0,0 km/h
09.01.2012 12:00 7,8 C 85 % 1028,7 hPa 0,0 l/m 0,0 km/h W-NW 5,4 C 7,8 C 0,0 km/h
09.01.2012 13:00 7,7 C 85 % 1028,5 hPa 0,0 l/m 10,4 km/h W-NW 5,3 C 4,8 C 5,8 km/h
09.01.2012 14:00 6,2 C 84 % 1028,6 hPa 0,0 l/m 22,0 km/h W-SW 3,7 C -2,3 C 12,2 km/h
09.01.2012 15:00 5,4 C 86 % 1028,4 hPa 0,0 l/m 0,0 km/h W-NW 3,3 C 5,4 C 0,0 km/h
09.01.2012 16:00 5,1 C 86 % 1029,0 hPa 0,4 l/m 7,1 km/h W 3,0 C 4,5 C 4,0 km/h
09.01.2012 17:00 5,0 C 86 % 1029,6 hPa 0,0 l/m 3,9 km/h W 2,9 C 5,0 C 2,2 km/h
09.01.2012 18:00 5,4 C 87 % 1030,1 hPa 0,0 l/m 3,2 km/h W 3,4 C 5,4 C 1,8 km/h
09.01.2012 19:00 5,6 C 87 % 1030,6 hPa 0,0 l/m 0,0 km/h W-NW 3,6 C 5,6 C 0,0 km/h
09.01.2012 20:00 5,6 C 86 % 1030,6 hPa 0,0 l/m 10,4 km/h W 3,4 C 2,5 C 5,8 km/h
09.01.2012 21:00 5,3 C 87 % 1030,9 hPa 0,0 l/m 13,6 km/h W 3,3 C 0,2 C 7,6 km/h
09.01.2012 22:00 5,1 C 87 % 1030,8 hPa 0,4 l/m 0,0 km/h S 3,1 C 5,1 C 0,0 km/h
09.01.2012 23:00 4,8 C 86 % 1031,1 hPa 0,4 l/m 0,0 km/h W-SW 2,7 C 4,8 C 0,0 km/h
10.01.2012 00:00 5,5 C 87 % 1031,1 hPa 0,0 l/m 1,3 km/h W-SW 3,5 C 5,5 C 0,7 km/h
10.01.2012 01:00 5,8 C 87 % 1031,0 hPa 0,0 l/m 18,1 km/h W 3,8 C -1,4 C 10,1 km/h
10.01.2012 02:00 5,9 C 87 % 1031,4 hPa 0,0 l/m 0,0 km/h N-NO 3,9 C 5,9 C 0,0 km/h
10.01.2012 03:00 5,6 C 87 % 1031,4 hPa 0,0 l/m 0,0 km/h O-SO 3,6 C 5,6 C 0,0 km/h
10.01.2012 04:00 5,2 C 87 % 1031,3 hPa 0,0 l/m 0,0 km/h O-SO 3,2 C 5,2 C 0,0 km/h
10.01.2012 05:00 5,0 C 86 % 1031,5 hPa 0,7 l/m 0,0 km/h SO 2,9 C 5,0 C 0,0 km/h
10.01.2012 06:00 5,1 C 86 % 1031,5 hPa 0,0 l/m 0,0 km/h SO 3,0 C 5,1 C 0,0 km/h
10.01.2012 07:00 5,1 C 85 % 1032,1 hPa 0,4 l/m 0,0 km/h O-SO 2,8 C 5,1 C 0,0 km/h
10.01.2012 08:00 5,3 C 84 % 1032,1 hPa 0,0 l/m 0,0 km/h SO 2,8 C 5,3 C 0,0 km/h
10.01.2012 09:00 5,8 C 84 % 1032,7 hPa 0,0 l/m 0,0 km/h S-SO 3,3 C 5,8 C 0,0 km/h
10.01.2012 10:00 6,8 C 83 % 1033,0 hPa 0,0 l/m 0,0 km/h N-NW 4,1 C 6,8 C 0,0 km/h
10.01.2012 11:00 9,8 C 80 % 1033,1 hPa 0,0 l/m 0,0 km/h S 6,5 C 9,8 C 0,0 km/h
10.01.2012 12:00 9,9 C 82 % 1032,7 hPa 0,0 l/m 0,0 km/h S 7,0 C 9,9 C 0,0 km/h
10.01.2012 13:00 9,9 C 82 % 1032,4 hPa 0,0 l/m 0,0 km/h O-SO 7,0 C 9,9 C 0,0 km/h
10.01.2012 14:00 10,9 C 78 % 1032,1 hPa 0,0 l/m 0,0 km/h O-NO 7,2 C 10,9 C 0,0 km/h
10.01.2012 15:00 9,8 C 80 % 1032,4 hPa 0,0 l/m 0,0 km/h O-NO 6,5 C 9,8 C 0,0 km/h
10.01.2012 16:00 7,9 C 84 % 1032,6 hPa 0,0 l/m 0,0 km/h SO 5,4 C 7,9 C 0,0 km/h
10.01.2012 17:00 6,0 C 86 % 1032,7 hPa 0,0 l/m 0,0 km/h SO 3,8 C 6,0 C 0,0 km/h
10.01.2012 18:00 3,8 C 87 % 1032,6 hPa 0,0 l/m 0,0 km/h S-SO 1,8 C 3,8 C 0,0 km/h
10.01.2012 19:00 2,6 C 86 % 1032,4 hPa 0,0 l/m 0,0 km/h S 0,5 C 2,6 C 0,0 km/h
10.01.2012 20:00 2,1 C 86 % 1032,6 hPa 0,0 l/m 6,5 km/h S-SO 0,0 C 2,0 C 3,6 km/h
10.01.2012 21:00 1,5 C 86 % 1032,6 hPa 0,0 l/m 5,8 km/h S-SO -0,6 C 1,5 C 3,2 km/h
10.01.2012 22:00 1,4 C 85 % 1032,6 hPa 0,0 l/m 3,2 km/h S-SO -0,8 C 1,4 C 1,8 km/h
10.01.2012 23:00 1,1 C 85 % 1032,7 hPa 0,0 l/m 0,0 km/h S-SO -1,1 C 1,1 C 0,0 km/h
11.01.2012 00:00 1,1 C 84 % 1032,5 hPa 0,0 l/m 0,0 km/h SO -1,3 C 1,1 C 0,0 km/h
11.01.2012 01:00 0,5 C 85 % 1032,5 hPa 0,0 l/m 0,0 km/h SO -1,7 C 0,5 C 0,0 km/h
11.01.2012 02:00 0,3 C 84 % 1032,3 hPa 0,0 l/m 0,0 km/h SO -2,1 C 0,3 C 0,0 km/h
11.01.2012 03:00 -0,7 C 84 % 1032,7 hPa 0,0 l/m 0,0 km/h S-SO -3,1 C -0,7 C 0,0 km/h
11.01.2012 04:00 -0,7 C 84 % 1032,7 hPa 0,0 l/m 0,0 km/h S -3,1 C -0,7 C 0,0 km/h
11.01.2012 05:00 -0,5 C 83 % 1032,2 hPa 0,0 l/m 3,9 km/h O-SO -3,0 C -0,5 C 2,2 km/h
11.01.2012 06:00 -0,4 C 83 % 1032,3 hPa 0,0 l/m 0,0 km/h O-SO -2,9 C -0,4 C 0,0 km/h
11.01.2012 07:00 -2,0 C 83 % 1032,7 hPa 0,0 l/m 0,0 km/h S-SO -4,5 C -2,0 C 0,0 km/h
11.01.2012 08:00 -1,6 C 83 % 1033,4 hPa 0,0 l/m 0,0 km/h O-SO -4,1 C -1,6 C 0,0 km/h
11.01.2012 09:00 2,3 C 77 % 1034,0 hPa 0,0 l/m 0,0 km/h O-SO -1,3 C 2,3 C 0,0 km/h
11.01.2012 10:00 8,0 C 86 % 1034,2 hPa 0,0 l/m 0,0 km/h O-NO 5,8 C 8,0 C 0,0 km/h
11.01.2012 11:00 6,1 C 85 % 1034,2 hPa 0,0 l/m 0,0 km/h NW 3,8 C 6,1 C 0,0 km/h
11.01.2012 12:00 7,8 C 78 % 1033,8 hPa 0,0 l/m 0,0 km/h N-NW 4,2 C 7,8 C 0,0 km/h
11.01.2012 13:00 8,6 C 76 % 1032,8 hPa 0,0 l/m 0,0 km/h N 4,6 C 8,6 C 0,0 km/h
11.01.2012 14:00 8,5 C 76 % 1032,9 hPa 0,0 l/m 0,0 km/h N-NW 4,5 C 8,5 C 0,0 km/h
11.01.2012 15:00 6,6 C 80 % 1032,9 hPa 0,0 l/m 0,0 km/h NW 3,4 C 6,6 C 0,0 km/h
11.01.2012 16:00 4,2 C 85 % 1032,9 hPa 0,0 l/m 0,0 km/h N-NW 1,9 C 4,2 C 0,0 km/h
11.01.2012 17:00 3,3 C 87 % 1033,0 hPa 0,0 l/m 0,0 km/h W 1,3 C 3,3 C 0,0 km/h
11.01.2012 18:00 3,6 C 87 % 1033,4 hPa 0,0 l/m 0,0 km/h S-SO 1,6 C 3,6 C 0,0 km/h
11.01.2012 19:00 3,7 C 87 % 1033,4 hPa 0,0 l/m 0,0 km/h S-SO 1,7 C 3,7 C 0,0 km/h
11.01.2012 20:00 3,6 C 87 % 1033,4 hPa 0,0 l/m 0,0 km/h S-SO 1,6 C 3,6 C 0,0 km/h
11.01.2012 21:00 3,3 C 87 % 1032,9 hPa 0,0 l/m 0,0 km/h S-SO 1,3 C 3,3 C 0,0 km/h
11.01.2012 22:00 2,6 C 86 % 1032,6 hPa 0,0 l/m 0,0 km/h S-SO 0,5 C 2,6 C 0,0 km/h
11.01.2012 23:00 2,1 C 86 % 1032,3 hPa 0,0 l/m 0,0 km/h NW 0,0 C 2,1 C 0,0 km/h
12.01.2012 00:00 2,6 C 86 % 1031,8 hPa 0,0 l/m 0,0 km/h W-NW 0,5 C 2,6 C 0,0 km/h
12.01.2012 01:00 2,5 C 85 % 1031,5 hPa 0,0 l/m 0,0 km/h W-SW 0,2 C 2,5 C 0,0 km/h
12.01.2012 02:00 2,3 C 84 % 1031,2 hPa 0,0 l/m 0,0 km/h S -0,1 C 2,3 C 0,0 km/h
12.01.2012 03:00 2,1 C 84 % 1030,7 hPa 0,0 l/m 3,9 km/h S -0,3 C 2,1 C 2,2 km/h
12.01.2012 04:00 1,4 C 84 % 1030,0 hPa 0,0 l/m 1,9 km/h S-SO -1,0 C 1,4 C 1,1 km/h
12.01.2012 05:00 0,9 C 84 % 1029,3 hPa 0,0 l/m 3,9 km/h S -1,5 C 0,9 C 2,2 km/h
12.01.2012 06:00 0,4 C 84 % 1028,8 hPa 0,0 l/m 0,0 km/h O-SO -2,0 C 0,4 C 0,0 km/h
12.01.2012 07:00 -0,5 C 84 % 1028,7 hPa 0,0 l/m 0,0 km/h O-SO -2,9 C -0,5 C 0,0 km/h
12.01.2012 08:00 -1,1 C 84 % 1028,3 hPa 0,0 l/m 0,0 km/h W-NW -3,4 C -1,1 C 0,0 km/h
12.01.2012 09:00 -0,5 C 83 % 1028,6 hPa 0,0 l/m 0,0 km/h W-NW -3,0 C -0,5 C 0,0 km/h
12.01.2012 10:00 0,7 C 82 % 1028,8 hPa 0,0 l/m 0,0 km/h N -2,0 C 0,7 C 0,0 km/h
12.01.2012 11:00 5,3 C 85 % 1028,3 hPa 0,0 l/m 3,2 km/h W-NW 3,0 C 5,3 C 1,8 km/h
12.01.2012 12:00 5,5 C 80 % 1027,6 hPa 0,0 l/m 0,0 km/h NW 2,3 C 5,5 C 0,0 km/h
12.01.2012 13:00 4,0 C 85 % 1026,9 hPa 0,0 l/m 2,6 km/h W-NW 1,7 C 4,0 C 1,4 km/h
12.01.2012 14:00 3,2 C 85 % 1026,9 hPa 0,0 l/m 8,4 km/h W-SW 0,9 C 1,4 C 4,7 km/h
12.01.2012 15:00 2,6 C 86 % 1026,6 hPa 0,0 l/m 0,0 km/h W 0,5 C 2,6 C 0,0 km/h
12.01.2012 16:00 2,2 C 87 % 1026,5 hPa 0,0 l/m 7,1 km/h W-SW 0,3 C 1,5 C 4,0 km/h
12.01.2012 17:00 1,6 C 87 % 1027,1 hPa 0,0 l/m 8,4 km/h NW -0,3 C -0,3 C 4,7 km/h
12.01.2012 18:00 1,8 C 87 % 1027,5 hPa 0,0 l/m 0,0 km/h W -0,1 C 1,8 C 0,0 km/h
12.01.2012 19:00 1,8 C 87 % 1026,5 hPa 0,0 l/m 0,0 km/h N-NW -0,1 C 1,8 C 0,0 km/h
12.01.2012 20:00 1,9 C 87 % 1026,8 hPa 0,0 l/m 3,2 km/h NW -0,0 C 1,9 C 1,8 km/h
12.01.2012 21:00 2,2 C 87 % 1027,2 hPa 0,0 l/m 19,4 km/h S 0,3 C -6,5 C 10,8 km/h
12.01.2012 22:00 2,4 C 87 % 1027,2 hPa 0,0 l/m 2,6 km/h S-SO 0,5 C 2,4 C 1,4 km/h
12.01.2012 23:00 2,3 C 87 % 1026,9 hPa 0,4 l/m 0,0 km/h W-SW 0,4 C 2,3 C 0,0 km/h
13.01.2012 00:00 2,9 C 87 % 1026,4 hPa 0,0 l/m 0,0 km/h W-SW 1,0 C 2,9 C 0,0 km/h
13.01.2012 01:00 3,4 C 86 % 1026,2 hPa 0,0 l/m 14,3 km/h NO 1,3 C -2,5 C 7,9 km/h
13.01.2012 02:00 2,8 C 87 % 1026,1 hPa 0,4 l/m 0,0 km/h NO 0,9 C 2,8 C 0,0 km/h
13.01.2012 03:00 2,4 C 87 % 1026,7 hPa 0,0 l/m 0,0 km/h O-SO 0,5 C 2,4 C 0,0 km/h
13.01.2012 04:00 2,4 C 87 % 1026,7 hPa 0,4 l/m 0,0 km/h O-NO 0,5 C 2,4 C 0,0 km/h
13.01.2012 05:00 2,5 C 86 % 1026,8 hPa 0,0 l/m 0,0 km/h O 0,4 C 2,5 C 0,0 km/h
13.01.2012 06:00 2,6 C 86 % 1026,6 hPa 0,0 l/m 0,0 km/h O-SO 0,5 C 2,6 C 0,0 km/h
13.01.2012 07:00 2,5 C 86 % 1026,6 hPa 0,0 l/m 0,0 km/h O 0,4 C 2,5 C 0,0 km/h
13.01.2012 08:00 2,6 C 86 % 1026,8 hPa 0,0 l/m 0,0 km/h O-SO 0,5 C 2,6 C 0,0 km/h
13.01.2012 09:00 2,9 C 86 % 1026,8 hPa 0,0 l/m 0,0 km/h N-NW 0,8 C 2,9 C 0,0 km/h
13.01.2012 10:00 3,9 C 86 % 1027,1 hPa 0,0 l/m 0,0 km/h NW 1,8 C 3,9 C 0,0 km/h
13.01.2012 11:00 4,9 C 86 % 1027,0 hPa 0,0 l/m 0,6 km/h N-NO 2,8 C 4,9 C 0,4 km/h
13.01.2012 12:00 6,5 C 84 % 1026,7 hPa 0,0 l/m 0,0 km/h W 4,0 C 6,5 C 0,0 km/h
13.01.2012 13:00 6,8 C 80 % 1026,1 hPa 0,0 l/m 0,0 km/h NO 3,6 C 6,8 C 0,0 km/h
13.01.2012 14:00 7,9 C 77 % 1025,6 hPa 0,0 l/m 9,7 km/h NW 4,1 C 5,5 C 5,4 km/h
13.01.2012 15:00 7,3 C 69 % 1025,6 hPa 0,0 l/m 9,1 km/h N-NW 2,0 C 5,2 C 5,0 km/h
13.01.2012 16:00 4,6 C 77 % 1025,7 hPa 0,0 l/m 4,5 km/h W-NW 0,9 C 4,6 C 2,5 km/h
13.01.2012 17:00 4,1 C 82 % 1026,1 hPa 0,0 l/m 0,0 km/h SO 1,3 C 4,1 C 0,0 km/h
13.01.2012 18:00 3,3 C 85 % 1026,9 hPa 0,0 l/m 0,0 km/h O-SO 1,0 C 3,3 C 0,0 km/h
13.01.2012 19:00 1,3 C 87 % 1027,0 hPa 0,7 l/m 0,0 km/h O -0,6 C 1,3 C 0,0 km/h
13.01.2012 20:00 -0,4 C 87 % 1027,2 hPa 0,4 l/m 0,0 km/h O-SO -2,3 C -0,4 C 0,0 km/h
13.01.2012 21:00 -0,7 C 87 % 1027,4 hPa 0,0 l/m 0,0 km/h O-SO -2,6 C -0,7 C 0,0 km/h
13.01.2012 22:00 -1,5 C 87 % 1026,9 hPa 0,0 l/m 0,0 km/h O-SO -3,4 C -1,5 C 0,0 km/h
13.01.2012 23:00 -1,2 C 87 % 1026,7 hPa 0,0 l/m 0,0 km/h O-SO -3,1 C -1,2 C 0,0 km/h
14.01.2012 00:00 -1,8 C 87 % 1026,4 hPa 0,0 l/m 0,0 km/h O-SO -3,7 C -1,8 C 0,0 km/h
14.01.2012 01:00 -2,4 C 87 % 1026,6 hPa 0,0 l/m 0,0 km/h O-SO -4,3 C -2,4 C 0,0 km/h
14.01.2012 02:00 -2,4 C 87 % 1026,7 hPa 0,0 l/m 0,0 km/h O-SO -4,3 C -2,4 C 0,0 km/h
14.01.2012 03:00 -2,1 C 87 % 1026,8 hPa 0,0 l/m 0,0 km/h O-SO -4,0 C -2,1 C 0,0 km/h
14.01.2012 04:00 -3,0 C 87 % 1026,4 hPa 0,0 l/m 0,0 km/h O-SO -4,9 C -3,0 C 0,0 km/h
14.01.2012 05:00 -3,5 C 87 % 1026,1 hPa 0,0 l/m 0,0 km/h O-SO -5,3 C -3,5 C 0,0 km/h
14.01.2012 06:00 -2,8 C 87 % 1026,0 hPa 0,0 l/m 0,0 km/h O-SO -4,7 C -2,8 C 0,0 km/h
14.01.2012 07:00 -3,0 C 87 % 1026,1 hPa 0,0 l/m 0,0 km/h O-SO -4,9 C -3,0 C 0,0 km/h
14.01.2012 08:00 -2,9 C 87 % 1025,7 hPa 0,0 l/m 0,0 km/h O-SO -4,8 C -2,9 C 0,0 km/h
14.01.2012 09:00 0,1 C 84 % 1025,7 hPa 0,0 l/m 0,0 km/h O-SO -2,3 C 0,1 C 0,0 km/h
14.01.2012 10:00 3,6 C 87 % 1025,7 hPa 0,0 l/m 0,0 km/h NW 1,6 C 3,6 C 0,0 km/h
14.01.2012 11:00 6,8 C 77 % 1025,2 hPa 0,0 l/m 0,0 km/h N-NW 3,1 C 6,8 C 0,0 km/h
14.01.2012 12:00 8,1 C 70 % 1024,7 hPa 0,4 l/m 0,0 km/h S 3,0 C 8,1 C 0,0 km/h
14.01.2012 13:00 5,3 C 74 % 1024,0 hPa 0,0 l/m 0,0 km/h S 1,0 C 5,3 C 0,0 km/h
14.01.2012 14:00 3,8 C 79 % 1023,5 hPa 0,0 l/m 0,0 km/h S-SO 0,5 C 3,8 C 0,0 km/h
14.01.2012 15:00 7,0 C 74 % 1023,6 hPa 0,0 l/m 0,0 km/h S 2,7 C 7,0 C 0,0 km/h
14.01.2012 16:00 7,8 C 66 % 1023,4 hPa 0,0 l/m 0,0 km/h S 1,9 C 7,8 C 0,0 km/h
14.01.2012 17:00 -0,9 C 79 % 1023,7 hPa 0,0 l/m 0,0 km/h S-SO -4,1 C -0,9 C 0,0 km/h
14.01.2012 18:00 -1,2 C 85 % 1023,9 hPa 0,0 l/m 0,0 km/h S-SO -3,4 C -1,2 C 0,0 km/h
14.01.2012 19:00 -2,2 C 86 % 1023,7 hPa 0,0 l/m 0,0 km/h S-SO -4,2 C -2,2 C 0,0 km/h
14.01.2012 20:00 -1,6 C 87 % 1023,6 hPa 0,0 l/m 11,0 km/h S-SO -3,5 C -6,1 C 6,1 km/h
14.01.2012 21:00 -1,7 C 86 % 1023,4 hPa 0,0 l/m 3,2 km/h NO -3,7 C -1,7 C 1,8 km/h
14.01.2012 22:00 -1,7 C 86 % 1023,4 hPa 0,0 l/m 0,6 km/h S-SO -3,7 C -1,7 C 0,4 km/h
14.01.2012 23:00 -3,1 C 87 % 1023,0 hPa 0,0 l/m 0,0 km/h S-SO -4,9 C -3,1 C 0,0 km/h
15.01.2012 00:00 -3,7 C 87 % 1022,6 hPa 0,0 l/m 0,0 km/h O-SO -5,5 C -3,7 C 0,0 km/h
15.01.2012 01:00 -4,1 C 87 % 1022,3 hPa 0,0 l/m 0,0 km/h O-SO -5,9 C -4,1 C 0,0 km/h
15.01.2012 02:00 -4,7 C 88 % 1022,3 hPa 0,0 l/m 0,0 km/h O-NO -6,4 C -4,7 C 0,0 km/h
15.01.2012 03:00 -4,1 C 87 % 1022,1 hPa 0,0 l/m 0,0 km/h SO -5,9 C -4,1 C 0,0 km/h
15.01.2012 04:00 -5,5 C 88 % 1022,0 hPa 0,0 l/m 0,0 km/h SO -7,2 C -5,5 C 0,0 km/h
15.01.2012 05:00 -5,1 C 88 % 1021,8 hPa 0,0 l/m 0,0 km/h O-NO -6,8 C -5,1 C 0,0 km/h
15.01.2012 06:00 -4,7 C 88 % 1021,7 hPa 0,0 l/m 0,0 km/h N-NO -6,4 C -4,7 C 0,0 km/h
15.01.2012 07:00 -6,1 C 88 % 1021,9 hPa 0,0 l/m 0,0 km/h N-NO -7,8 C -6,1 C 0,0 km/h
15.01.2012 08:00 -5,7 C 88 % 1021,8 hPa 0,0 l/m 0,0 km/h N-NO -7,4 C -5,7 C 0,0 km/h
15.01.2012 09:00 -1,1 C 86 % 1021,7 hPa 0,0 l/m 0,0 km/h N-NO -3,1 C -1,1 C 0,0 km/h
15.01.2012 10:00 4,1 C 85 % 1021,8 hPa 0,0 l/m 0,0 km/h NO 1,8 C 4,1 C 0,0 km/h
15.01.2012 11:00 6,7 C 73 % 1021,0 hPa 0,0 l/m 0,0 km/h N 2,2 C 6,7 C 0,0 km/h
15.01.2012 12:00 6,9 C 67 % 1020,1 hPa 0,0 l/m 0,0 km/h W-NW 1,2 C 6,9 C 0,0 km/h
15.01.2012 13:00 7,3 C 63 % 1019,3 hPa 0,0 l/m 0,0 km/h W 0,7 C 7,3 C 0,0 km/h
15.01.2012 14:00 9,4 C 51 % 1018,5 hPa 0,0 l/m 0,0 km/h NW -0,2 C 9,4 C 0,0 km/h
15.01.2012 15:00 11,3 C 44 % 1018,4 hPa 0,0 l/m 0,0 km/h O-SO -0,5 C 11,3 C 0,0 km/h
15.01.2012 16:00 11,3 C 41 % 1018,8 hPa 0,0 l/m 0,0 km/h O-SO -1,5 C 11,3 C 0,0 km/h
15.01.2012 17:00 1,3 C 57 % 1019,0 hPa 0,0 l/m 0,0 km/h SO -6,3 C 1,3 C 0,0 km/h
15.01.2012 18:00 -0,4 C 68 % 1019,5 hPa 0,0 l/m 0,0 km/h SO -5,6 C -0,4 C 0,0 km/h
15.01.2012 19:00 -2,2 C 75 % 1019,5 hPa 0,0 l/m 0,0 km/h NO -6,0 C -2,2 C 0,0 km/h
15.01.2012 20:00 -1,2 C 78 % 1019,5 hPa 0,0 l/m 0,0 km/h S-SO -4,5 C -1,2 C 0,0 km/h
15.01.2012 21:00 -3,6 C 80 % 1019,7 hPa 0,0 l/m 0,0 km/h S-SO -6,5 C -3,6 C 0,0 km/h
15.01.2012 22:00 -4,2 C 83 % 1019,9 hPa 0,0 l/m 0,0 km/h SO -6,6 C -4,2 C 0,0 km/h
15.01.2012 23:00 -5,0 C 85 % 1020,1 hPa 0,0 l/m 0,0 km/h O -7,1 C -5,0 C 0,0 km/h
Min-Datum _ 15.01.12 15.01.12 15.01.12 - 09.01.12 - 15.01.12 12.01.12 09.01.12
_ Min-Zeit 07:30 16:30 15:30 - 00:30 - 07:30 21:30 00:30
Minimum _ -6,1 C 41 % 1018,4 hPa - 0,0 km/h - -7,8 C -6,5 C 0,0 km/h
Max-Datum _ 15.01.12 15.01.12 11.01.12 10.01.12 09.01.12 - 10.01.12 15.01.12 09.01.12
_ Max-Zeit 15:30 02:30 10:30 05:30 14:30 - 14:30 15:30 14:30
Maximum _ 11,3 C 88 % 1034,2 hPa 0,7 l/m 22,0 km/h
W-SW
- 7,2 C 11,3 C 12,2 km/h
W-SW
Durchschnitt _ 2,6 C 83 % 1027,8 hPa #4,6 l/m 1,4 km/h O-SO -0,1 C 2,3 C 0,8 km/h
www.sexauwetter.de